createdAt,value
2019-05-20T00:01:17.839Z,7.73
2019-05-20T00:03:46.831Z,11.27
2019-05-20T00:06:14.774Z,9.97
2019-05-20T00:08:42.662Z,7.90
2019-05-20T00:11:10.610Z,9.33
2019-05-20T00:13:38.545Z,8.70
2019-05-20T00:16:06.502Z,9.97
2019-05-20T00:18:34.423Z,9.47
2019-05-20T00:21:02.413Z,7.83
2019-05-20T00:23:30.362Z,8.73
2019-05-20T00:25:58.230Z,8.40
2019-05-20T00:28:26.238Z,8.07
2019-05-20T00:30:54.077Z,8.40
2019-05-20T00:33:22.035Z,10.00
2019-05-20T00:35:51.729Z,9.60
2019-05-20T00:38:19.752Z,9.37
2019-05-20T00:40:47.673Z,8.10
2019-05-20T00:43:15.590Z,9.63
2019-05-20T00:45:43.511Z,8.70
2019-05-20T00:48:11.388Z,8.40
2019-05-20T00:50:39.257Z,9.60
2019-05-20T00:53:07.333Z,8.83
2019-05-20T00:55:38.584Z,7.73
2019-05-20T00:58:06.518Z,8.17
2019-05-20T01:00:34.542Z,7.60
2019-05-20T01:03:02.451Z,8.73
2019-05-20T01:05:30.345Z,7.57
2019-05-20T01:07:58.266Z,7.83
2019-05-20T01:10:26.125Z,7.40
2019-05-20T01:12:54.044Z,6.30
2019-05-20T01:15:21.981Z,7.10
2019-05-20T01:17:49.879Z,6.30
2019-05-20T01:20:18.224Z,6.70
2019-05-20T01:22:46.189Z,7.27
2019-05-20T01:25:14.156Z,6.90
2019-05-20T01:27:42.019Z,6.70
2019-05-20T01:30:10.662Z,5.87
2019-05-20T01:32:38.569Z,7.30
2019-05-20T01:35:06.771Z,6.50
2019-05-20T01:37:34.777Z,6.60
2019-05-20T01:40:02.709Z,7.43
2019-05-20T01:42:30.719Z,7.00
2019-05-20T01:44:58.564Z,6.60
2019-05-20T01:47:26.485Z,6.80
2019-05-20T01:49:54.660Z,16.33
2019-05-20T01:52:22.532Z,7.17
2019-05-20T01:54:50.452Z,7.33
2019-05-20T01:57:18.402Z,6.80
2019-05-20T01:59:46.449Z,6.80
2019-05-20T02:02:14.403Z,6.47
2019-05-20T02:04:42.274Z,7.03
2019-05-20T02:07:10.176Z,7.17
2019-05-20T02:09:38.214Z,6.20
2019-05-20T02:12:06.129Z,8.43
2019-05-20T02:14:39.390Z,7.13
2019-05-20T02:17:07.277Z,7.13
2019-05-20T02:19:35.171Z,6.27
2019-05-20T02:22:03.080Z,7.10
2019-05-20T02:24:31.009Z,7.00
2019-05-20T02:26:58.957Z,6.73
2019-05-20T02:29:26.864Z,6.10
2019-05-20T02:31:54.690Z,6.97
2019-05-20T02:34:22.576Z,7.50
2019-05-20T02:36:50.473Z,6.83
2019-05-20T02:39:18.405Z,5.60
2019-05-20T02:41:46.296Z,7.37
2019-05-20T02:44:14.287Z,6.50
2019-05-20T02:46:42.298Z,6.77
2019-05-20T02:49:10.272Z,6.93
2019-05-20T02:51:38.156Z,6.17
2019-05-20T02:54:06.203Z,7.17
2019-05-20T02:56:34.205Z,7.70
2019-05-20T02:59:02.582Z,7.10
2019-05-20T03:01:30.441Z,7.70
2019-05-20T03:04:10.578Z,7.80
2019-05-20T03:06:28.371Z,7.03
2019-05-20T03:08:56.283Z,7.63
2019-05-20T03:11:24.195Z,8.10
2019-05-20T03:13:52.465Z,8.47
2019-05-20T03:16:21.553Z,8.17
2019-05-20T03:18:49.547Z,11.20
2019-05-20T03:21:17.484Z,8.33
2019-05-20T03:23:45.323Z,7.77
2019-05-20T03:26:13.328Z,8.30
2019-05-20T03:28:41.213Z,9.43
2019-05-20T03:31:09.123Z,7.60
2019-05-20T03:33:37.107Z,9.00
2019-05-20T03:36:04.994Z,9.00
2019-05-20T03:38:32.872Z,9.40
2019-05-20T03:41:00.749Z,8.93
2019-05-20T03:43:28.593Z,7.43
2019-05-20T03:45:56.488Z,7.73
2019-05-20T03:48:24.373Z,7.00
2019-05-20T03:50:52.295Z,7.10
2019-05-20T03:53:20.240Z,7.23
2019-05-20T03:55:48.177Z,7.40
2019-05-20T03:58:16.108Z,6.50
2019-05-20T04:00:46.015Z,7.10
2019-05-20T04:03:14.425Z,7.13
2019-05-20T04:05:42.457Z,6.87
2019-05-20T04:08:10.462Z,6.43
2019-05-20T04:10:38.505Z,6.70
2019-05-20T04:13:06.666Z,6.70
2019-05-20T04:15:34.590Z,6.40
2019-05-20T04:18:02.513Z,6.37
2019-05-20T04:20:31.638Z,6.70
2019-05-20T04:22:59.610Z,6.10
2019-05-20T04:25:27.629Z,10.67
2019-05-20T04:27:55.572Z,6.37
2019-05-20T04:30:23.470Z,6.67
2019-05-20T04:32:51.459Z,6.40
2019-05-20T04:35:22.715Z,6.57
2019-05-20T04:37:49.324Z,6.97
2019-05-20T04:40:17.483Z,6.50
2019-05-20T04:42:45.422Z,9.90
2019-05-20T04:45:13.484Z,6.40
2019-05-20T04:47:41.421Z,6.77
2019-05-20T04:50:09.762Z,6.80
2019-05-20T04:52:37.655Z,6.10
2019-05-20T04:55:05.669Z,7.13
2019-05-20T04:57:34.527Z,9.07
2019-05-20T05:00:03.124Z,6.93
2019-05-20T05:02:32.195Z,6.80
2019-05-20T05:05:00.086Z,7.20
2019-05-20T05:07:27.960Z,6.50
2019-05-20T05:09:55.901Z,6.80
2019-05-20T05:12:24.921Z,6.30
2019-05-20T05:14:52.719Z,7.30
2019-05-20T05:17:20.654Z,7.17
2019-05-20T05:19:48.507Z,6.57
2019-05-20T05:22:16.468Z,9.03
2019-05-20T05:24:44.367Z,12.37
2019-05-20T05:27:12.303Z,18.50
2019-05-20T05:29:40.132Z,13.80
2019-05-20T05:32:08.029Z,15.57
2019-05-20T05:34:35.859Z,11.53
2019-05-20T05:37:03.722Z,15.83
2019-05-20T05:39:31.613Z,10.03
2019-05-20T05:41:59.491Z,8.93
2019-05-20T05:44:27.477Z,11.30
2019-05-20T05:46:55.724Z,12.10
2019-05-20T05:49:23.580Z,11.30
2019-05-20T05:51:51.534Z,10.70
2019-05-20T05:54:20.400Z,11.47
2019-05-20T05:56:48.378Z,13.90
2019-05-20T05:59:16.321Z,10.23
2019-05-20T06:01:44.203Z,17.13
2019-05-20T06:04:12.058Z,10.07
2019-05-20T06:06:39.933Z,13.13
2019-05-20T06:09:07.851Z,19.10
2019-05-20T06:11:35.705Z,14.67
2019-05-20T06:14:03.527Z,14.90
2019-05-20T06:16:36.345Z,15.90
2019-05-20T06:19:01.124Z,15.47
2019-05-20T06:21:29.022Z,16.67
2019-05-20T06:23:56.908Z,10.73
2019-05-20T06:26:24.702Z,9.00
2019-05-20T06:28:52.673Z,8.70
2019-05-20T06:31:20.511Z,9.03
2019-05-20T06:33:48.341Z,11.43
2019-05-20T06:36:26.550Z,12.10
2019-05-20T06:38:56.241Z,9.80
2019-05-20T06:41:24.070Z,10.00
2019-05-20T06:43:51.949Z,9.33
2019-05-20T06:46:19.853Z,11.23
2019-05-20T06:48:47.686Z,10.00
2019-05-20T06:51:15.505Z,10.40
2019-05-20T06:53:43.397Z,10.00
2019-05-20T06:56:11.267Z,10.97
2019-05-20T06:58:39.123Z,9.43
2019-05-20T07:01:07.047Z,10.40
2019-05-20T07:03:34.947Z,10.87
2019-05-20T07:06:02.833Z,10.60
2019-05-20T07:08:30.705Z,10.23
2019-05-20T07:10:58.552Z,9.83
2019-05-20T07:13:26.511Z,10.77
2019-05-20T07:15:54.392Z,9.50
2019-05-20T07:18:22.351Z,9.10
2019-05-20T07:20:50.261Z,9.60
2019-05-20T07:23:18.248Z,9.47
2019-05-20T07:25:46.281Z,9.57
2019-05-20T07:28:14.234Z,9.70
2019-05-20T07:30:42.141Z,12.80
2019-05-20T07:33:09.983Z,9.77
2019-05-20T07:35:37.871Z,10.27
2019-05-20T07:38:05.814Z,8.67
2019-05-20T07:40:33.716Z,10.23
2019-05-20T07:43:03.527Z,9.23
2019-05-20T07:45:34.545Z,10.07
2019-05-20T07:48:03.939Z,9.00
2019-05-20T07:50:34.294Z,9.10
2019-05-20T07:53:02.293Z,9.43
2019-05-20T07:55:36.094Z,8.93
2019-05-20T07:58:07.736Z,8.93
2019-05-20T08:00:36.388Z,13.17
2019-05-20T08:03:04.618Z,10.10
2019-05-20T08:05:33.603Z,9.30
2019-05-20T08:08:01.663Z,11.30
2019-05-20T08:10:29.519Z,11.80
2019-05-20T08:12:57.580Z,10.07
2019-05-20T08:15:25.558Z,10.93
2019-05-20T08:17:53.939Z,9.40
2019-05-20T08:20:22.358Z,11.27
2019-05-20T08:22:50.215Z,10.73
2019-05-20T08:25:18.290Z,10.17
2019-05-20T08:27:46.221Z,11.40
2019-05-20T08:30:17.075Z,10.83
2019-05-20T08:32:44.966Z,10.23
2019-05-20T08:35:12.980Z,12.23
2019-05-20T08:37:45.860Z,10.80
2019-05-20T08:40:10.615Z,13.07
2019-05-20T08:42:38.502Z,11.53
2019-05-20T08:45:06.718Z,9.77
2019-05-20T08:47:34.663Z,10.90
2019-05-20T08:50:06.890Z,17.10
2019-05-20T08:52:33.426Z,10.53
2019-05-20T08:55:01.655Z,9.77
2019-05-20T08:57:30.416Z,11.80
2019-05-20T08:59:58.476Z,11.67
2019-05-20T09:02:26.430Z,10.07
2019-05-20T09:04:54.270Z,13.90
2019-05-20T09:07:22.130Z,11.00
2019-05-20T09:09:50.029Z,11.93
2019-05-20T09:12:17.878Z,13.20
2019-05-20T09:14:45.785Z,11.33
2019-05-20T09:17:13.734Z,12.47
2019-05-20T09:19:41.617Z,13.30
2019-05-20T09:22:09.589Z,11.20
2019-05-20T09:24:37.545Z,11.67
2019-05-20T09:27:05.486Z,13.20
2019-05-20T09:29:33.373Z,12.03
2019-05-20T09:32:01.493Z,12.97
2019-05-20T09:34:30.263Z,12.40
2019-05-20T09:36:58.166Z,12.03
2019-05-20T09:39:26.000Z,12.77
2019-05-20T09:41:53.843Z,14.80
2019-05-20T09:44:21.720Z,14.40
2019-05-20T09:46:49.544Z,15.17
2019-05-20T09:49:17.378Z,13.73
2019-05-20T09:51:45.290Z,13.63
2019-05-20T09:54:13.238Z,12.77
2019-05-20T09:56:41.118Z,15.33
2019-05-20T09:59:09.091Z,14.90
2019-05-20T10:01:40.308Z,14.00
2019-05-20T10:04:06.970Z,13.40
2019-05-20T10:06:35.823Z,12.50
2019-05-20T10:09:05.379Z,11.90
2019-05-20T10:11:33.693Z,13.23
2019-05-20T10:14:01.534Z,14.53
2019-05-20T10:16:29.410Z,13.20
2019-05-20T10:18:57.285Z,15.37
2019-05-20T10:21:25.160Z,15.60
2019-05-20T10:23:53.026Z,16.33
2019-05-20T10:26:21.024Z,14.30
2019-05-20T10:28:48.903Z,14.87
2019-05-20T10:31:16.766Z,15.37
2019-05-20T10:33:44.697Z,17.97
2019-05-20T10:36:12.566Z,16.87
2019-05-20T10:38:56.774Z,17.87
2019-05-20T10:41:11.520Z,16.10
2019-05-20T10:43:39.528Z,16.70
2019-05-20T10:46:07.429Z,17.43
2019-05-20T10:48:35.311Z,17.77
2019-05-20T10:51:03.177Z,19.97
2019-05-20T10:53:31.171Z,17.97
2019-05-20T10:55:59.302Z,18.43
2019-05-20T10:58:27.561Z,18.87
2019-05-20T11:01:02.639Z,21.70
2019-05-20T11:03:25.267Z,16.77
2019-05-20T11:05:53.200Z,16.57
2019-05-20T11:08:21.201Z,18.70
2019-05-20T11:10:49.027Z,18.03
2019-05-20T11:13:16.979Z,17.40
2019-05-20T11:15:44.916Z,16.53
2019-05-20T11:18:12.860Z,15.67
2019-05-20T11:20:40.710Z,15.17
2019-05-20T11:23:09.383Z,16.93
2019-05-20T11:25:37.273Z,18.53
2019-05-20T11:28:05.327Z,17.00
2019-05-20T11:30:33.196Z,15.77
2019-05-20T11:33:01.065Z,16.27
2019-05-20T11:35:29.053Z,17.20
2019-05-20T11:37:56.956Z,17.43
2019-05-20T11:40:26.008Z,17.90
2019-05-20T11:42:53.871Z,15.33
2019-05-20T11:45:21.758Z,16.10
2019-05-20T11:47:49.735Z,14.70
2019-05-20T11:50:17.765Z,15.70
2019-05-20T11:52:45.642Z,16.40
2019-05-20T11:55:13.816Z,16.50
2019-05-20T11:57:42.236Z,15.10
2019-05-20T12:00:13.835Z,14.33
2019-05-20T12:02:41.860Z,17.57
2019-05-20T12:05:10.408Z,17.37
2019-05-20T12:07:39.314Z,15.43
2019-05-20T12:10:08.250Z,16.37
2019-05-20T12:12:36.345Z,19.60
2019-05-20T12:15:05.992Z,17.40
2019-05-20T12:17:34.491Z,18.90
2019-05-20T12:20:03.941Z,16.90
2019-05-20T12:22:32.446Z,15.70
2019-05-20T12:25:00.311Z,19.97
2019-05-20T12:27:28.176Z,19.17
2019-05-20T12:29:56.237Z,18.17
2019-05-20T12:32:24.111Z,17.37
2019-05-20T12:34:53.044Z,16.33
2019-05-20T12:37:20.927Z,18.70
2019-05-20T12:40:05.524Z,18.67
2019-05-20T12:42:18.982Z,20.83
2019-05-20T12:44:46.956Z,19.40
2019-05-20T12:47:14.797Z,19.10
2019-05-20T12:49:42.678Z,17.10
2019-05-20T12:52:10.550Z,19.20
2019-05-20T12:54:44.673Z,19.67
2019-05-20T12:57:12.616Z,21.07
2019-05-20T12:59:40.474Z,21.60
2019-05-20T13:02:08.462Z,20.93
2019-05-20T13:04:36.327Z,22.43
2019-05-20T13:07:05.302Z,24.53
2019-05-20T13:09:33.218Z,23.20
2019-05-20T13:12:01.343Z,20.70
2019-05-20T13:14:29.187Z,23.00
2019-05-20T13:16:57.059Z,23.87
2019-05-20T13:19:24.932Z,22.13
2019-05-20T13:21:52.852Z,22.93
2019-05-20T13:24:20.769Z,24.80
2019-05-20T13:26:48.661Z,25.20
2019-05-20T13:29:16.581Z,31.13
2019-05-20T13:31:44.430Z,28.67
2019-05-20T13:34:12.316Z,30.70
2019-05-20T13:36:40.188Z,33.70
2019-05-20T13:39:10.999Z,35.07
2019-05-20T13:41:38.885Z,37.10
2019-05-20T13:44:06.733Z,34.13
2019-05-20T13:46:34.693Z,31.80
2019-05-20T13:49:04.124Z,34.93
2019-05-20T13:51:32.093Z,35.83
2019-05-20T13:53:59.984Z,35.70
2019-05-20T13:56:29.114Z,36.83
2019-05-20T13:58:57.005Z,38.30
2019-05-20T14:01:24.850Z,38.17
2019-05-20T14:03:56.724Z,41.30
2019-05-20T14:06:22.572Z,40.10
2019-05-20T14:08:50.625Z,41.20
2019-05-20T14:11:33.601Z,39.97
2019-05-20T14:13:48.302Z,42.17
2019-05-20T14:16:16.174Z,45.47
2019-05-20T14:18:44.069Z,45.30
2019-05-20T14:21:12.160Z,45.83
2019-05-20T14:23:40.251Z,44.37
2019-05-20T14:26:08.281Z,46.80
2019-05-20T14:28:37.197Z,42.70
2019-05-20T14:31:06.206Z,42.80
2019-05-20T14:33:34.490Z,47.07
2019-05-20T14:36:02.604Z,43.33
2019-05-20T14:38:31.465Z,42.03
2019-05-20T14:40:59.473Z,40.77
2019-05-20T14:43:27.695Z,39.60
2019-05-20T14:45:56.938Z,41.30
2019-05-20T14:48:24.969Z,41.43
2019-05-20T14:50:52.918Z,41.03
2019-05-20T14:53:20.896Z,41.50
2019-05-20T14:55:49.175Z,42.10
2019-05-20T14:58:17.954Z,39.90
2019-05-20T15:00:45.966Z,42.50
2019-05-20T15:03:13.939Z,41.50
2019-05-20T15:05:41.876Z,41.23
2019-05-20T15:08:09.888Z,45.27
2019-05-20T15:10:37.839Z,43.63
2019-05-20T15:13:05.783Z,46.17
2019-05-20T15:15:34.390Z,42.27
2019-05-20T15:18:02.378Z,41.13
2019-05-20T15:20:31.172Z,41.23
2019-05-20T15:22:59.134Z,40.63
2019-05-20T15:25:27.180Z,41.73
2019-05-20T15:27:56.193Z,42.87
2019-05-20T15:30:25.805Z,37.97
2019-05-20T15:32:54.880Z,49.10
2019-05-20T15:35:24.170Z,45.67
2019-05-20T15:37:52.126Z,47.80
2019-05-20T15:40:24.047Z,48.50
2019-05-20T15:42:50.940Z,44.27
2019-05-20T15:45:19.325Z,42.10
2019-05-20T15:47:47.371Z,40.33
2019-05-20T15:50:16.351Z,44.90
2019-05-20T15:52:44.360Z,43.50
2019-05-20T15:55:13.135Z,45.07
2019-05-20T15:57:41.432Z,41.10
2019-05-20T16:00:10.442Z,46.73
2019-05-20T16:02:38.538Z,38.90
2019-05-20T16:05:06.904Z,44.47
2019-05-20T16:07:34.945Z,40.07
2019-05-20T16:10:03.018Z,40.70
2019-05-20T16:12:34.275Z,46.17
2019-05-20T16:15:01.341Z,44.47
2019-05-20T16:17:29.389Z,37.23
2019-05-20T16:19:57.749Z,41.60
2019-05-20T16:22:28.261Z,40.50
2019-05-20T16:24:56.219Z,45.13
2019-05-20T16:27:24.655Z,40.97
2019-05-20T16:30:06.176Z,41.97
2019-05-20T16:32:25.056Z,39.50
2019-05-20T16:34:53.412Z,40.03
2019-05-20T16:37:21.417Z,42.50
2019-05-20T16:39:49.441Z,42.10
2019-05-20T16:42:17.672Z,40.00
2019-05-20T16:44:45.840Z,37.33
2019-05-20T16:47:14.511Z,41.80
2019-05-20T16:49:42.517Z,43.30
2019-05-20T16:52:11.346Z,37.23
2019-05-20T16:54:39.396Z,43.87
2019-05-20T16:57:07.336Z,39.17
2019-05-20T16:59:35.272Z,41.73
2019-05-20T17:02:03.577Z,41.97
2019-05-20T17:04:31.618Z,40.87
2019-05-20T17:06:59.698Z,40.07
2019-05-20T17:09:27.687Z,43.50
2019-05-20T17:11:55.709Z,36.50
2019-05-20T17:14:23.987Z,44.07
2019-05-20T17:16:51.890Z,39.90
2019-05-20T17:19:19.738Z,40.23
2019-05-20T17:21:47.643Z,41.50
2019-05-20T17:24:15.611Z,41.63
2019-05-20T17:26:43.552Z,42.27
2019-05-20T17:29:11.451Z,41.67
2019-05-20T17:31:39.574Z,41.10
2019-05-20T17:34:07.619Z,42.23
2019-05-20T17:36:35.718Z,44.73
2019-05-20T17:39:04.981Z,43.97
2019-05-20T17:41:33.124Z,49.47
2019-05-20T17:44:01.063Z,46.03
2019-05-20T17:46:29.135Z,38.00
2019-05-20T17:48:57.082Z,44.67
2019-05-20T17:51:25.111Z,40.93
2019-05-20T17:53:53.022Z,48.03
2019-05-20T17:56:20.919Z,42.13
2019-05-20T17:58:48.921Z,41.33
2019-05-20T18:01:16.827Z,43.10
2019-05-20T18:03:44.702Z,45.93
2019-05-20T18:06:12.611Z,39.00
2019-05-20T18:08:43.829Z,42.80
2019-05-20T18:11:11.752Z,38.67
2019-05-20T18:13:40.812Z,41.10
2019-05-20T18:16:08.878Z,38.30
2019-05-20T18:18:36.754Z,38.30
2019-05-20T18:21:04.648Z,42.03
2019-05-20T18:23:32.553Z,44.83
2019-05-20T18:26:03.481Z,43.57
2019-05-20T18:28:30.204Z,39.10
2019-05-20T18:30:59.114Z,45.87
2019-05-20T18:33:26.989Z,48.57
2019-05-20T18:35:54.915Z,44.37
2019-05-20T18:38:22.775Z,42.93
2019-05-20T18:40:50.705Z,44.60
2019-05-20T18:43:18.620Z,46.13
2019-05-20T18:45:46.653Z,44.57
2019-05-20T18:48:14.639Z,43.40
2019-05-20T18:50:42.861Z,46.80
2019-05-20T18:53:12.086Z,47.10
2019-05-20T18:55:40.234Z,47.47
2019-05-20T18:58:08.258Z,53.77
2019-05-20T19:00:36.184Z,50.93
2019-05-20T19:03:04.112Z,49.53
2019-05-20T19:05:32.109Z,50.03
2019-05-20T19:08:00.020Z,53.33
2019-05-20T19:10:28.285Z,55.73
2019-05-20T19:12:56.214Z,52.63
2019-05-20T19:15:24.278Z,54.47
2019-05-20T19:17:52.204Z,56.50
2019-05-20T19:20:22.950Z,52.07
2019-05-20T19:22:50.121Z,60.07
2019-05-20T19:25:18.072Z,60.73
2019-05-20T19:27:46.129Z,54.77
2019-05-20T19:30:14.951Z,57.13
2019-05-20T19:32:53.012Z,52.80
2019-05-20T19:35:21.052Z,57.47
2019-05-20T19:37:49.023Z,60.77
2019-05-20T19:40:17.100Z,51.80
2019-05-20T19:42:45.236Z,54.43
2019-05-20T19:45:13.588Z,59.23
2019-05-20T19:47:41.520Z,51.07
2019-05-20T19:50:10.064Z,49.93
2019-05-20T19:52:38.112Z,49.83
2019-05-20T19:55:06.439Z,55.63
2019-05-20T19:57:34.383Z,59.20
2019-05-20T20:00:02.538Z,54.97
2019-05-20T20:02:30.619Z,60.60
2019-05-20T20:04:58.528Z,54.83
2019-05-20T20:07:28.786Z,56.47
2019-05-20T20:09:56.285Z,59.90
2019-05-20T20:12:24.418Z,59.70
2019-05-20T20:14:52.435Z,60.57
2019-05-20T20:17:20.336Z,52.23
2019-05-20T20:19:48.248Z,59.33
2019-05-20T20:22:16.133Z,62.43
2019-05-20T20:24:44.110Z,60.37
2019-05-20T20:27:12.046Z,58.27
2019-05-20T20:29:39.939Z,57.63
2019-05-20T20:32:07.867Z,58.40
2019-05-20T20:34:35.842Z,60.03
2019-05-20T20:37:03.808Z,65.57
2019-05-20T20:39:34.314Z,53.50
2019-05-20T20:42:01.576Z,59.33
2019-05-20T20:44:29.332Z,56.17
2019-05-20T20:46:57.169Z,60.30
2019-05-20T20:49:25.112Z,67.13
2019-05-20T20:51:59.181Z,59.87
2019-05-20T20:54:27.096Z,59.93
2019-05-20T20:56:55.005Z,51.93
2019-05-20T20:59:22.966Z,54.87
2019-05-20T21:02:03.200Z,51.07
2019-05-20T21:04:32.112Z,49.30
2019-05-20T21:07:00.163Z,46.93
2019-05-20T21:09:28.103Z,49.27
2019-05-20T21:11:56.051Z,48.87
2019-05-20T21:14:27.521Z,52.30
2019-05-20T21:16:55.574Z,45.40
2019-05-20T21:19:24.651Z,43.87
2019-05-20T21:21:52.635Z,45.10
2019-05-20T21:24:25.375Z,44.20
2019-05-20T21:26:57.735Z,45.93
2019-05-20T21:29:25.942Z,47.57
2019-05-20T21:31:53.976Z,47.60
2019-05-20T21:34:21.933Z,47.70
2019-05-20T21:36:50.623Z,45.57
2019-05-20T21:39:18.543Z,48.53
2019-05-20T21:41:46.549Z,47.47
2019-05-20T21:44:14.429Z,50.67
2019-05-20T21:47:09.795Z,49.43
2019-05-20T21:49:38.731Z,53.20
2019-05-20T21:52:07.763Z,51.80
2019-05-20T21:54:35.714Z,47.80
2019-05-20T21:57:03.604Z,48.30
2019-05-20T21:59:31.440Z,45.00
2019-05-20T22:01:59.348Z,44.90
2019-05-20T22:04:31.121Z,46.90
2019-05-20T22:06:59.137Z,47.23
2019-05-20T22:09:27.248Z,48.20
2019-05-20T22:11:55.121Z,49.50
2019-05-20T22:14:23.156Z,47.23
2019-05-20T22:16:50.971Z,47.03
2019-05-20T22:19:19.077Z,46.43
2019-05-20T22:21:56.594Z,52.10
2019-05-20T22:24:24.513Z,51.40
2019-05-20T22:26:52.487Z,48.13
2019-05-20T22:29:20.367Z,46.60
2019-05-20T22:31:48.286Z,52.90
2019-05-20T22:34:16.180Z,51.97
2019-05-20T22:36:44.195Z,54.90
2019-05-20T22:39:12.152Z,64.17
2019-05-20T22:41:40.057Z,59.67
2019-05-20T22:44:08.988Z,64.30
2019-05-20T22:46:36.847Z,61.13
2019-05-20T22:49:04.861Z,62.03
2019-05-20T22:51:32.710Z,70.63
2019-05-20T22:54:00.890Z,63.10
2019-05-20T22:56:28.781Z,68.03
2019-05-20T22:58:56.815Z,64.10
2019-05-20T23:01:24.714Z,59.70
2019-05-20T23:03:56.382Z,50.23
2019-05-20T23:06:22.451Z,55.27
2019-05-20T23:08:50.355Z,51.80
2019-05-20T23:11:18.294Z,54.17
2019-05-20T23:13:46.289Z,54.23
2019-05-20T23:16:14.178Z,57.40
2019-05-20T23:18:42.122Z,51.00
2019-05-20T23:21:10.087Z,53.23
2019-05-20T23:23:38.055Z,51.47
2019-05-20T23:26:15.234Z,52.13
2019-05-20T23:28:43.219Z,46.60
2019-05-20T23:31:11.924Z,50.17
2019-05-20T23:33:39.829Z,48.43
2019-05-20T23:36:07.724Z,49.83
2019-05-20T23:38:35.622Z,50.73
2019-05-20T23:41:03.643Z,53.70
2019-05-20T23:43:31.696Z,54.73
2019-05-20T23:45:59.860Z,50.77
2019-05-20T23:48:27.798Z,51.87
2019-05-20T23:50:55.714Z,60.37
2019-05-20T23:53:23.613Z,55.23
2019-05-20T23:55:51.571Z,58.93
2019-05-20T23:58:19.592Z,58.00
